• Join FlightAware (Why Join?)
  • Login
  • US Flag 
08:09AM EDT


 

Airport Tracker/Info


-or-


 

Live Flight TrackerFlight Track Log ✈ DCM1130 ✈ 23-Oct-2013 ✈ KROA - KMTN

Flight Track Log - Related Links

Times and Time Zones

All times are in EDT time to prevent confusion due to time zone crossing. See the DCM1130 flight status page for this flight to view local times or setup timezone preferences in your user account.

Time Position Orientation Groundspeed Altitude Reporting Facility
EDT Latitude Longitude Course Direction KTS MPH feet Rate Location/Type
11:28AM 37.4161 -79.9483 46° Northeast 252 290 6,500  Level Washington Center
11:29AM 37.4686 -79.8806 46° Northeast 264 304 9,000 2,220 Climbing Washington Center
11:30AM 37.5203 -79.7842 56° Northeast 287 330 11,000 2,100 Climbing Washington Center
11:31AM 37.5800 -79.6825 53° Northeast 321 369 13,300 1,920 Climbing Washington Center
11:32AM 37.6400 -79.5756 55° Northeast 361 415 14,900 900 Climbing Washington Center
11:33AM 37.7044 -79.4556 56° Northeast 401 461 15,100  Climbing Washington Center
11:34AM 37.7703 -79.3461 53° Northeast 413 475 14,900 -120 Descending Washington Center
11:35AM 37.8389 -79.2231 55° Northeast 425 489 14,900 480 Level Washington Center
11:36AM 37.9197 -79.0956 51° Northeast 420 483 15,900 1,200 Climbing Washington Center
11:37AM 38.0200 -79.0211 30° Northeast 415 478 17,300 1,440 Climbing Washington Center
11:38AM 38.1264 -78.9414 31° Northeast 426 490 18,900 720 Climbing Washington Center
11:39AM 38.2331 -78.8642 30° Northeast 436 502 18,800 -1,080 Descending Washington Center
11:40AM 38.3203 -78.7939 32° Northeast 425 489 16,800 -2,040 Descending Washington Center
11:41AM 38.4183 -78.7161 42° Northeast 418 481 14,800 -2,040 Descending Washington Center
11:42AM 38.5100 -78.6403 33° Northeast 406 467 12,700 -2,040 Descending Washington Center
11:43AM 38.5908 -78.5744 32° Northeast 373 429 10,700 -2,100 Descending Washington Center
11:44AM 38.6675 -78.5111 33° Northeast 329 379 8,600 -1,380 Descending Washington Center
11:45AM 38.7356 -78.4472 36° Northeast 302 348 8,000 -300 Descending Washington Center
11:46AM 38.8017 -78.3886 35° Northeast 292 336 8,000  Level Washington Center
11:47AM 38.8656 -78.3269 37° Northeast 292 336 8,000  Level Washington Center
11:48AM 38.9336 -78.2656 35° Northeast 292 336 8,000 -240 Level Washington Center
11:49AM 39.0017 -78.2039 35° Northeast 297 342 7,600 -540 Descending Washington Center
11:50AM 39.0656 -78.1447 36° Northeast 292 336 7,000 -300 Descending Washington Center
11:51AM 39.1294 -78.0881 35° Northeast 287 330 7,000  Level Washington Center
11:52AM 39.1931 -78.0286 36° Northeast 287 330 7,000  Level Washington Center
11:53AM 39.2667 -77.9000 53° Northeast 288 331 7,000 -120 Level Potomac TRACON
11:54AM 39.3000 -77.8167 63° Northeast 283 326 6,800 -600 Descending Potomac TRACON
11:55AM 39.3333 -77.7167 67° East 283 326 5,800 -900 Descending Potomac TRACON
11:56AM 39.3500 -77.6500 72° East 279 321 5,200 -480 Descending Potomac TRACON
11:57AM 39.3833 -77.5667 63° Northeast 270 311 5,000 -120 Descending Potomac TRACON
11:58AM 39.4167 -77.4667 67° East 271 312 5,000  Level Potomac TRACON
11:59AM 39.4500 -77.3833 63° Northeast 269 310 5,000  Level Potomac TRACON
12:00PM 39.4500 -77.2833 90° East 268 308 5,000  Level Potomac TRACON
12:01PM 39.4667 -77.1833 78° East 268 308 5,000  Level Potomac TRACON
12:02PM 39.4667 -77.1000 90° East 270 311 5,000  Level Potomac TRACON
12:03PM 39.4667 -77.0167 90° East 271 312 5,000 -240 Level Potomac TRACON
12:04PM 39.4667 -76.9167 90° East 268 308 4,600 -480 Descending Potomac TRACON
12:05PM 39.4667 -76.8167 90° East 260 299 4,000 -300 Descending Potomac TRACON
12:06PM 39.4500 -76.7333 104° East 255 293 4,000 -180 Level Potomac TRACON
12:07PM 39.4167 -76.6500 117° Southeast 259 298 3,700 -720 Descending Potomac TRACON
12:08PM 39.3833 -76.5833 123° Southeast 221 254 2,700 -960 Descending Potomac TRACON
12:09PM 39.3667 -76.5167 108° East 201 231 1,800 -600 Descending Potomac TRACON
12:10PM 39.3333 -76.4667 131° Southeast 181 208 1,500 -240 Descending Potomac TRACON
12:11PM 39.3000 -76.4333 142° Southeast 167 192 1,400 -420 Descending Potomac TRACON
12:12PM 39.3000 -76.3833 90° East 160 184 800 -660 Descending Potomac TRACON